sensor_id;sensor_type;location;lat;lon;timestamp;temperature;humidity
12156;DHT22;6141;49.092;8.516;2023-04-06T00:01:15;3.00;44.80
12156;DHT22;6141;49.092;8.516;2023-04-06T00:03:43;2.80;46.30
12156;DHT22;6141;49.092;8.516;2023-04-06T00:06:13;2.40;47.10
12156;DHT22;6141;49.092;8.516;2023-04-06T00:08:43;2.30;47.00
12156;DHT22;6141;49.092;8.516;2023-04-06T00:11:11;2.20;47.10
12156;DHT22;6141;49.092;8.516;2023-04-06T00:13:39;2.10;47.90
12156;DHT22;6141;49.092;8.516;2023-04-06T00:16:08;2.30;46.10
12156;DHT22;6141;49.092;8.516;2023-04-06T00:18:36;2.60;45.00
12156;DHT22;6141;49.092;8.516;2023-04-06T00:21:04;2.70;44.10
12156;DHT22;6141;49.092;8.516;2023-04-06T00:23:34;2.50;45.50
12156;DHT22;6141;49.092;8.516;2023-04-06T00:26:02;2.70;45.50
12156;DHT22;6141;49.092;8.516;2023-04-06T00:28:31;2.70;45.70
12156;DHT22;6141;49.092;8.516;2023-04-06T00:30:59;2.30;48.00
12156;DHT22;6141;49.092;8.516;2023-04-06T00:33:27;2.20;49.20
12156;DHT22;6141;49.092;8.516;2023-04-06T00:35:59;2.20;49.70
12156;DHT22;6141;49.092;8.516;2023-04-06T00:38:28;2.20;50.50
12156;DHT22;6141;49.092;8.516;2023-04-06T00:40:58;2.30;50.60
12156;DHT22;6141;49.092;8.516;2023-04-06T00:43:26;2.40;50.20
12156;DHT22;6141;49.092;8.516;2023-04-06T00:45:55;2.60;49.20
12156;DHT22;6141;49.092;8.516;2023-04-06T00:48:24;2.70;48.10
12156;DHT22;6141;49.092;8.516;2023-04-06T00:50:52;2.60;49.10
12156;DHT22;6141;49.092;8.516;2023-04-06T00:53:21;2.60;50.00
12156;DHT22;6141;49.092;8.516;2023-04-06T00:55:51;2.50;50.60
12156;DHT22;6141;49.092;8.516;2023-04-06T00:58:23;2.50;50.30
12156;DHT22;6141;49.092;8.516;2023-04-06T01:01:01;2.30;50.60
12156;DHT22;6141;49.092;8.516;2023-04-06T01:03:29;2.30;50.60
12156;DHT22;6141;49.092;8.516;2023-04-06T01:05:57;2.40;50.20
12156;DHT22;6141;49.092;8.516;2023-04-06T01:08:34;2.50;49.10
12156;DHT22;6141;49.092;8.516;2023-04-06T01:11:28;2.50;48.30
12156;DHT22;6141;49.092;8.516;2023-04-06T01:13:58;2.00;50.30
12156;DHT22;6141;49.092;8.516;2023-04-06T01:16:57;1.80;50.10
12156;DHT22;6141;49.092;8.516;2023-04-06T01:19:28;1.70;53.00
12156;DHT22;6141;49.092;8.516;2023-04-06T01:21:57;1.60;53.70
12156;DHT22;6141;49.092;8.516;2023-04-06T01:24:30;1.80;53.60
12156;DHT22;6141;49.092;8.516;2023-04-06T01:27:05;1.80;54.00
12156;DHT22;6141;49.092;8.516;2023-04-06T01:29:48;1.90;53.40
12156;DHT22;6141;49.092;8.516;2023-04-06T01:32:30;1.80;53.30
12156;DHT22;6141;49.092;8.516;2023-04-06T01:34:59;1.70;54.10
12156;DHT22;6141;49.092;8.516;2023-04-06T01:37:29;1.80;53.40
12156;DHT22;6141;49.092;8.516;2023-04-06T01:40:07;2.10;51.10
12156;DHT22;6141;49.092;8.516;2023-04-06T01:42:43;2.30;49.30
12156;DHT22;6141;49.092;8.516;2023-04-06T01:45:17;2.00;51.40
12156;DHT22;6141;49.092;8.516;2023-04-06T01:47:46;2.10;50.40
12156;DHT22;6141;49.092;8.516;2023-04-06T01:50:15;2.10;50.40
12156;DHT22;6141;49.092;8.516;2023-04-06T01:52:47;2.20;50.50
12156;DHT22;6141;49.092;8.516;2023-04-06T01:55:17;1.80;51.30
12156;DHT22;6141;49.092;8.516;2023-04-06T01:58:02;1.80;51.30
12156;DHT22;6141;49.092;8.516;2023-04-06T02:00:37;1.90;51.50
12156;DHT22;6141;49.092;8.516;2023-04-06T02:03:05;2.10;50.40
12156;DHT22;6141;49.092;8.516;2023-04-06T02:05:34;2.00;50.30
12156;DHT22;6141;49.092;8.516;2023-04-06T02:08:17;2.10;50.40
12156;DHT22;6141;49.092;8.516;2023-04-06T02:10:47;1.90;50.30
12156;DHT22;6141;49.092;8.516;2023-04-06T02:13:25;1.80;50.90
12156;DHT22;6141;49.092;8.516;2023-04-06T02:15:55;1.70;51.00
12156;DHT22;6141;49.092;8.516;2023-04-06T02:18:32;1.60;52.00
12156;DHT22;6141;49.092;8.516;2023-04-06T02:21:10;1.50;52.60
12156;DHT22;6141;49.092;8.516;2023-04-06T02:23:39;1.80;51.10
12156;DHT22;6141;49.092;8.516;2023-04-06T02:26:09;1.60;52.00
12156;DHT22;6141;49.092;8.516;2023-04-06T02:28:38;1.50;52.70
12156;DHT22;6141;49.092;8.516;2023-04-06T02:31:07;1.50;52.20
12156;DHT22;6141;49.092;8.516;2023-04-06T02:33:38;1.50;52.60
12156;DHT22;6141;49.092;8.516;2023-04-06T02:36:12;1.60;51.70
12156;DHT22;6141;49.092;8.516;2023-04-06T02:38:40;1.50;52.70
12156;DHT22;6141;49.092;8.516;2023-04-06T02:41:10;1.40;52.90
12156;DHT22;6141;49.092;8.516;2023-04-06T02:43:39;1.30;53.20
12156;DHT22;6141;49.092;8.516;2023-04-06T02:46:17;1.30;53.50
12156;DHT22;6141;49.092;8.516;2023-04-06T02:48:46;1.40;53.10
12156;DHT22;6141;49.092;8.516;2023-04-06T02:51:14;1.60;51.00
12156;DHT22;6141;49.092;8.516;2023-04-06T02:53:48;1.40;52.20
12156;DHT22;6141;49.092;8.516;2023-04-06T02:56:17;1.30;53.20
12156;DHT22;6141;49.092;8.516;2023-04-06T02:58:50;1.30;53.90
12156;DHT22;6141;49.092;8.516;2023-04-06T03:01:20;1.50;52.20
12156;DHT22;6141;49.092;8.516;2023-04-06T03:03:55;1.60;51.10
12156;DHT22;6141;49.092;8.516;2023-04-06T03:06:26;1.60;50.50
12156;DHT22;6141;49.092;8.516;2023-04-06T03:08:59;1.80;50.10
12156;DHT22;6141;49.092;8.516;2023-04-06T03:11:29;1.70;50.10
12156;DHT22;6141;49.092;8.516;2023-04-06T03:13:57;1.60;49.90
12156;DHT22;6141;49.092;8.516;2023-04-06T03:16:26;1.60;50.00
12156;DHT22;6141;49.092;8.516;2023-04-06T03:18:54;1.70;49.60
12156;DHT22;6141;49.092;8.516;2023-04-06T03:21:22;1.50;49.00
12156;DHT22;6141;49.092;8.516;2023-04-06T03:23:54;1.60;49.90
12156;DHT22;6141;49.092;8.516;2023-04-06T03:26:22;1.20;51.00
12156;DHT22;6141;49.092;8.516;2023-04-06T03:28:53;0.90;52.40
12156;DHT22;6141;49.092;8.516;2023-04-06T03:31:26;0.90;54.30
12156;DHT22;6141;49.092;8.516;2023-04-06T03:33:59;1.20;51.90
12156;DHT22;6141;49.092;8.516;2023-04-06T03:36:31;1.20;52.50
12156;DHT22;6141;49.092;8.516;2023-04-06T03:39:00;1.10;53.10
12156;DHT22;6141;49.092;8.516;2023-04-06T03:41:32;1.30;52.60
12156;DHT22;6141;49.092;8.516;2023-04-06T03:44:12;1.40;52.30
12156;DHT22;6141;49.092;8.516;2023-04-06T03:46:43;1.20;53.30
12156;DHT22;6141;49.092;8.516;2023-04-06T03:49:11;1.00;53.90
12156;DHT22;6141;49.092;8.516;2023-04-06T03:51:43;1.00;54.10
12156;DHT22;6141;49.092;8.516;2023-04-06T03:54:11;1.20;53.10
12156;DHT22;6141;49.092;8.516;2023-04-06T03:56:40;1.30;52.70
12156;DHT22;6141;49.092;8.516;2023-04-06T03:59:08;1.30;52.60
12156;DHT22;6141;49.092;8.516;2023-04-06T04:01:38;1.50;51.30
12156;DHT22;6141;49.092;8.516;2023-04-06T04:04:07;1.50;50.20
12156;DHT22;6141;49.092;8.516;2023-04-06T04:06:35;1.50;49.80
12156;DHT22;6141;49.092;8.516;2023-04-06T04:09:05;1.60;47.90
12156;DHT22;6141;49.092;8.516;2023-04-06T04:11:34;1.50;50.00
12156;DHT22;6141;49.092;8.516;2023-04-06T04:14:02;1.40;49.30
12156;DHT22;6141;49.092;8.516;2023-04-06T04:16:31;1.60;48.90
12156;DHT22;6141;49.092;8.516;2023-04-06T04:19:01;1.30;49.70
12156;DHT22;6141;49.092;8.516;2023-04-06T04:21:29;0.70;52.60
12156;DHT22;6141;49.092;8.516;2023-04-06T04:24:02;0.60;54.80
12156;DHT22;6141;49.092;8.516;2023-04-06T04:26:33;0.70;55.20
12156;DHT22;6141;49.092;8.516;2023-04-06T04:29:02;1.00;53.40
12156;DHT22;6141;49.092;8.516;2023-04-06T04:31:31;1.20;52.10
12156;DHT22;6141;49.092;8.516;2023-04-06T04:34:04;1.30;51.20
12156;DHT22;6141;49.092;8.516;2023-04-06T04:36:34;1.30;51.00
12156;DHT22;6141;49.092;8.516;2023-04-06T04:39:06;1.30;52.50
12156;DHT22;6141;49.092;8.516;2023-04-06T04:41:39;1.20;52.50
12156;DHT22;6141;49.092;8.516;2023-04-06T04:44:10;1.20;52.20
12156;DHT22;6141;49.092;8.516;2023-04-06T04:46:39;1.00;53.40
12156;DHT22;6141;49.092;8.516;2023-04-06T04:49:11;1.10;52.80
12156;DHT22;6141;49.092;8.516;2023-04-06T04:51:40;1.20;52.70
12156;DHT22;6141;49.092;8.516;2023-04-06T04:54:16;1.10;52.60
12156;DHT22;6141;49.092;8.516;2023-04-06T04:56:45;1.10;52.50
12156;DHT22;6141;49.092;8.516;2023-04-06T04:59:37;0.60;55.20
12156;DHT22;6141;49.092;8.516;2023-04-06T05:02:16;0.40;57.60
12156;DHT22;6141;49.092;8.516;2023-04-06T05:04:58;0.50;58.30
12156;DHT22;6141;49.092;8.516;2023-04-06T05:07:28;0.60;57.50
12156;DHT22;6141;49.092;8.516;2023-04-06T05:09:59;0.60;57.60
12156;DHT22;6141;49.092;8.516;2023-04-06T05:12:32;0.70;57.10
12156;DHT22;6141;49.092;8.516;2023-04-06T05:15:06;0.90;55.70
12156;DHT22;6141;49.092;8.516;2023-04-06T05:17:35;0.90;56.70
12156;DHT22;6141;49.092;8.516;2023-04-06T05:20:07;0.80;57.10
12156;DHT22;6141;49.092;8.516;2023-04-06T05:22:43;1.00;56.30
12156;DHT22;6141;49.092;8.516;2023-04-06T05:25:12;1.10;56.00
12156;DHT22;6141;49.092;8.516;2023-04-06T05:27:41;1.10;55.70
12156;DHT22;6141;49.092;8.516;2023-04-06T05:30:26;1.00;56.70
12156;DHT22;6141;49.092;8.516;2023-04-06T05:32:55;0.60;59.00
12156;DHT22;6141;49.092;8.516;2023-04-06T05:35:28;0.40;61.30
12156;DHT22;6141;49.092;8.516;2023-04-06T05:38:01;0.50;61.20
12156;DHT22;6141;49.092;8.516;2023-04-06T05:40:29;0.80;60.80
12156;DHT22;6141;49.092;8.516;2023-04-06T05:42:57;1.10;57.70
12156;DHT22;6141;49.092;8.516;2023-04-06T05:45:26;1.10;58.10
12156;DHT22;6141;49.092;8.516;2023-04-06T05:47:56;1.10;58.80
12156;DHT22;6141;49.092;8.516;2023-04-06T05:50:29;1.30;57.80
12156;DHT22;6141;49.092;8.516;2023-04-06T05:52:58;1.40;57.10
12156;DHT22;6141;49.092;8.516;2023-04-06T05:55:32;1.50;56.10
12156;DHT22;6141;49.092;8.516;2023-04-06T05:58:16;1.60;55.80
12156;DHT22;6141;49.092;8.516;2023-04-06T06:00:47;1.70;55.30
12156;DHT22;6141;49.092;8.516;2023-04-06T06:03:19;1.70;55.60
12156;DHT22;6141;49.092;8.516;2023-04-06T06:05:53;1.70;56.00
12156;DHT22;6141;49.092;8.516;2023-04-06T06:08:29;1.60;57.00
12156;DHT22;6141;49.092;8.516;2023-04-06T06:11:01;1.60;57.20
12156;DHT22;6141;49.092;8.516;2023-04-06T06:13:30;1.70;56.80
12156;DHT22;6141;49.092;8.516;2023-04-06T06:16:00;1.80;57.10
12156;DHT22;6141;49.092;8.516;2023-04-06T06:18:35;1.80;57.60
12156;DHT22;6141;49.092;8.516;2023-04-06T06:21:05;1.90;58.50
12156;DHT22;6141;49.092;8.516;2023-04-06T06:23:34;2.00;58.20
12156;DHT22;6141;49.092;8.516;2023-04-06T06:26:02;2.20;58.00
12156;DHT22;6141;49.092;8.516;2023-04-06T06:28:31;2.30;60.20
12156;DHT22;6141;49.092;8.516;2023-04-06T06:31:00;2.70;60.30
12156;DHT22;6141;49.092;8.516;2023-04-06T06:33:30;3.40;55.80
12156;DHT22;6141;49.092;8.516;2023-04-06T06:35:58;3.80;52.40
12156;DHT22;6141;49.092;8.516;2023-04-06T06:38:28;4.00;51.10
12156;DHT22;6141;49.092;8.516;2023-04-06T06:40:57;4.60;48.20
12156;DHT22;6141;49.092;8.516;2023-04-06T06:43:29;4.80;48.20
12156;DHT22;6141;49.092;8.516;2023-04-06T06:46:01;5.10;46.50
12156;DHT22;6141;49.092;8.516;2023-04-06T06:48:29;5.60;43.70
12156;DHT22;6141;49.092;8.516;2023-04-06T06:50:58;5.70;41.60
12156;DHT22;6141;49.092;8.516;2023-04-06T06:53:26;5.70;41.60
12156;DHT22;6141;49.092;8.516;2023-04-06T06:55:57;5.20;39.10
12156;DHT22;6141;49.092;8.516;2023-04-06T06:58:26;4.90;39.10
12156;DHT22;6141;49.092;8.516;2023-04-06T07:00:55;4.60;40.60
12156;DHT22;6141;49.092;8.516;2023-04-06T07:03:24;4.80;40.80
12156;DHT22;6141;49.092;8.516;2023-04-06T07:05:53;4.70;40.70
12156;DHT22;6141;49.092;8.516;2023-04-06T07:08:23;4.70;40.00
12156;DHT22;6141;49.092;8.516;2023-04-06T07:10:52;5.10;41.10
12156;DHT22;6141;49.092;8.516;2023-04-06T07:13:24;4.90;40.10
12156;DHT22;6141;49.092;8.516;2023-04-06T07:15:56;5.20;38.80
12156;DHT22;6141;49.092;8.516;2023-04-06T07:18:25;5.50;37.50
12156;DHT22;6141;49.092;8.516;2023-04-06T07:20:53;5.80;38.10
12156;DHT22;6141;49.092;8.516;2023-04-06T07:23:21;5.70;36.20
12156;DHT22;6141;49.092;8.516;2023-04-06T07:25:49;6.10;36.50
12156;DHT22;6141;49.092;8.516;2023-04-06T07:28:20;6.30;34.60
12156;DHT22;6141;49.092;8.516;2023-04-06T07:30:50;6.60;34.40
12156;DHT22;6141;49.092;8.516;2023-04-06T07:33:18;7.30;33.80
12156;DHT22;6141;49.092;8.516;2023-04-06T07:35:47;7.70;31.70
12156;DHT22;6141;49.092;8.516;2023-04-06T07:38:15;7.80;31.00
12156;DHT22;6141;49.092;8.516;2023-04-06T07:40:44;7.60;29.80
12156;DHT22;6141;49.092;8.516;2023-04-06T07:43:14;7.70;29.70
12156;DHT22;6141;49.092;8.516;2023-04-06T07:45:43;8.10;29.00
12156;DHT22;6141;49.092;8.516;2023-04-06T07:48:15;7.90;29.90
12156;DHT22;6141;49.092;8.516;2023-04-06T07:50:44;7.80;29.70
12156;DHT22;6141;49.092;8.516;2023-04-06T07:53:14;8.20;28.10
12156;DHT22;6141;49.092;8.516;2023-04-06T07:55:44;8.70;28.00
12156;DHT22;6141;49.092;8.516;2023-04-06T07:58:12;8.60;27.90
12156;DHT22;6141;49.092;8.516;2023-04-06T08:00:40;8.40;27.90
12156;DHT22;6141;49.092;8.516;2023-04-06T08:03:09;8.40;29.00
12156;DHT22;6141;49.092;8.516;2023-04-06T08:05:39;8.20;28.10
12156;DHT22;6141;49.092;8.516;2023-04-06T08:08:07;8.40;29.80
12156;DHT22;6141;49.092;8.516;2023-04-06T08:10:36;8.50;27.10
12156;DHT22;6141;49.092;8.516;2023-04-06T08:13:04;8.80;26.60
12156;DHT22;6141;49.092;8.516;2023-04-06T08:15:33;8.80;26.60
12156;DHT22;6141;49.092;8.516;2023-04-06T08:18:01;8.80;27.30
12156;DHT22;6141;49.092;8.516;2023-04-06T08:20:29;9.10;26.50
12156;DHT22;6141;49.092;8.516;2023-04-06T08:22:59;9.40;25.80
12156;DHT22;6141;49.092;8.516;2023-04-06T08:25:28;9.20;25.70
12156;DHT22;6141;49.092;8.516;2023-04-06T08:27:56;9.20;26.90
12156;DHT22;6141;49.092;8.516;2023-04-06T08:30:24;9.60;28.10
12156;DHT22;6141;49.092;8.516;2023-04-06T08:32:53;9.90;26.10
12156;DHT22;6141;49.092;8.516;2023-04-06T08:35:21;9.70;26.40
12156;DHT22;6141;49.092;8.516;2023-04-06T08:37:50;9.90;25.90
12156;DHT22;6141;49.092;8.516;2023-04-06T08:40:20;9.80;24.80
12156;DHT22;6141;49.092;8.516;2023-04-06T08:42:49;9.90;25.00
12156;DHT22;6141;49.092;8.516;2023-04-06T08:45:18;10.10;24.40
12156;DHT22;6141;49.092;8.516;2023-04-06T08:47:48;10.30;23.90
12156;DHT22;6141;49.092;8.516;2023-04-06T08:50:16;10.40;21.80
12156;DHT22;6141;49.092;8.516;2023-04-06T08:52:46;10.60;22.20
12156;DHT22;6141;49.092;8.516;2023-04-06T08:55:17;10.90;22.30
12156;DHT22;6141;49.092;8.516;2023-04-06T08:57:47;10.70;22.10
12156;DHT22;6141;49.092;8.516;2023-04-06T09:00:15;10.70;23.00
12156;DHT22;6141;49.092;8.516;2023-04-06T09:02:45;10.70;22.10
12156;DHT22;6141;49.092;8.516;2023-04-06T09:05:13;11.00;21.20
12156;DHT22;6141;49.092;8.516;2023-04-06T09:07:42;11.20;22.50
12156;DHT22;6141;49.092;8.516;2023-04-06T09:10:10;11.30;21.60
12156;DHT22;6141;49.092;8.516;2023-04-06T09:12:38;11.40;20.00
12156;DHT22;6141;49.092;8.516;2023-04-06T09:15:17;11.80;21.50
12156;DHT22;6141;49.092;8.516;2023-04-06T09:17:48;11.70;20.30
12156;DHT22;6141;49.092;8.516;2023-04-06T09:20:21;11.80;19.00
12156;DHT22;6141;49.092;8.516;2023-04-06T09:22:52;11.60;19.00
12156;DHT22;6141;49.092;8.516;2023-04-06T09:25:21;11.80;18.60
12156;DHT22;6141;49.092;8.516;2023-04-06T09:27:58;11.80;17.70
12156;DHT22;6141;49.092;8.516;2023-04-06T09:30:28;11.80;18.60
12156;DHT22;6141;49.092;8.516;2023-04-06T09:32:57;12.00;19.50
12156;DHT22;6141;49.092;8.516;2023-04-06T09:35:27;12.10;18.00
12156;DHT22;6141;49.092;8.516;2023-04-06T09:37:57;12.30;20.30
12156;DHT22;6141;49.092;8.516;2023-04-06T09:40:25;12.40;19.50
12156;DHT22;6141;49.092;8.516;2023-04-06T09:42:57;12.50;18.30
12156;DHT22;6141;49.092;8.516;2023-04-06T09:45:27;12.20;19.30
12156;DHT22;6141;49.092;8.516;2023-04-06T09:47:57;12.50;19.90
12156;DHT22;6141;49.092;8.516;2023-04-06T09:50:26;12.70;17.50
12156;DHT22;6141;49.092;8.516;2023-04-06T09:52:54;12.60;17.60
12156;DHT22;6141;49.092;8.516;2023-04-06T09:55:26;12.80;20.00
12156;DHT22;6141;49.092;8.516;2023-04-06T09:57:57;13.10;20.10
12156;DHT22;6141;49.092;8.516;2023-04-06T10:00:25;13.10;18.10
12156;DHT22;6141;49.092;8.516;2023-04-06T10:03:01;12.80;19.10
12156;DHT22;6141;49.092;8.516;2023-04-06T10:05:36;13.10;18.10
12156;DHT22;6141;49.092;8.516;2023-04-06T10:08:06;13.00;18.70
12156;DHT22;6141;49.092;8.516;2023-04-06T10:10:36;13.20;17.50
12156;DHT22;6141;49.092;8.516;2023-04-06T10:13:05;13.30;15.00
12156;DHT22;6141;49.092;8.516;2023-04-06T10:15:34;13.50;17.70
12156;DHT22;6141;49.092;8.516;2023-04-06T10:18:04;13.80;16.70
12156;DHT22;6141;49.092;8.516;2023-04-06T10:20:36;13.80;16.30
12156;DHT22;6141;49.092;8.516;2023-04-06T10:23:08;13.70;16.60
12156;DHT22;6141;49.092;8.516;2023-04-06T10:25:51;13.60;13.90
12156;DHT22;6141;49.092;8.516;2023-04-06T10:28:20;13.20;16.00
12156;DHT22;6141;49.092;8.516;2023-04-06T10:30:48;13.70;16.80
12156;DHT22;6141;49.092;8.516;2023-04-06T10:33:18;14.00;14.20
12156;DHT22;6141;49.092;8.516;2023-04-06T10:35:47;14.10;16.60
12156;DHT22;6141;49.092;8.516;2023-04-06T10:38:15;13.70;15.50
12156;DHT22;6141;49.092;8.516;2023-04-06T10:40:48;13.60;13.90
12156;DHT22;6141;49.092;8.516;2023-04-06T10:43:18;13.70;16.90
12156;DHT22;6141;49.092;8.516;2023-04-06T10:45:53;13.70;12.10
12156;DHT22;6141;49.092;8.516;2023-04-06T10:48:24;13.80;14.50
12156;DHT22;6141;49.092;8.516;2023-04-06T10:50:53;14.00;14.20
12156;DHT22;6141;49.092;8.516;2023-04-06T10:53:22;14.00;14.20
12156;DHT22;6141;49.092;8.516;2023-04-06T10:55:52;14.40;12.40
12156;DHT22;6141;49.092;8.516;2023-04-06T10:58:24;14.00;15.00
12156;DHT22;6141;49.092;8.516;2023-04-06T11:00:52;14.00;15.30
12156;DHT22;6141;49.092;8.516;2023-04-06T11:03:23;13.90;14.10
12156;DHT22;6141;49.092;8.516;2023-04-06T11:05:51;14.00;14.20
12156;DHT22;6141;49.092;8.516;2023-04-06T11:08:24;13.90;13.10
12156;DHT22;6141;49.092;8.516;2023-04-06T11:11:03;13.90;14.20
12156;DHT22;6141;49.092;8.516;2023-04-06T11:13:36;14.10;14.30
12156;DHT22;6141;49.092;8.516;2023-04-06T11:16:05;14.10;14.00
12156;DHT22;6141;49.092;8.516;2023-04-06T11:18:34;14.30;13.30
12156;DHT22;6141;49.092;8.516;2023-04-06T11:21:03;14.40;12.70
12156;DHT22;6141;49.092;8.516;2023-04-06T11:23:31;14.40;14.50
12156;DHT22;6141;49.092;8.516;2023-04-06T11:26:00;14.50;13.80
12156;DHT22;6141;49.092;8.516;2023-04-06T11:28:29;14.60;12.30
12156;DHT22;6141;49.092;8.516;2023-04-06T11:30:57;14.50;14.60
12156;DHT22;6141;49.092;8.516;2023-04-06T11:33:27;14.80;12.90
12156;DHT22;6141;49.092;8.516;2023-04-06T11:35:58;14.70;12.60
12156;DHT22;6141;49.092;8.516;2023-04-06T11:38:27;14.60;13.80
12156;DHT22;6141;49.092;8.516;2023-04-06T11:40:55;15.00;15.00
12156;DHT22;6141;49.092;8.516;2023-04-06T11:43:27;14.70;13.10
12156;DHT22;6141;49.092;8.516;2023-04-06T11:46:02;14.60;13.00
12156;DHT22;6141;49.092;8.516;2023-04-06T11:48:31;14.70;13.00
12156;DHT22;6141;49.092;8.516;2023-04-06T11:51:01;14.30;12.70
12156;DHT22;6141;49.092;8.516;2023-04-06T11:53:31;14.40;14.00
12156;DHT22;6141;49.092;8.516;2023-04-06T11:56:00;14.40;13.90
12156;DHT22;6141;49.092;8.516;2023-04-06T11:58:30;14.40;13.90
12156;DHT22;6141;49.092;8.516;2023-04-06T12:01:04;14.60;13.10
12156;DHT22;6141;49.092;8.516;2023-04-06T12:03:33;14.50;13.60
12156;DHT22;6141;49.092;8.516;2023-04-06T12:06:03;14.80;12.00
12156;DHT22;6141;49.092;8.516;2023-04-06T12:08:31;14.50;12.20
12156;DHT22;6141;49.092;8.516;2023-04-06T12:11:00;14.40;11.60
12156;DHT22;6141;49.092;8.516;2023-04-06T12:13:29;14.30;11.70
12156;DHT22;6141;49.092;8.516;2023-04-06T12:15:57;14.70;11.00
12156;DHT22;6141;49.092;8.516;2023-04-06T12:18:26;14.50;10.60
12156;DHT22;6141;49.092;8.516;2023-04-06T12:20:54;14.70;10.50
12156;DHT22;6141;49.092;8.516;2023-04-06T12:23:24;14.90;10.50
12156;DHT22;6141;49.092;8.516;2023-04-06T12:25:52;15.20;10.70
12156;DHT22;6141;49.092;8.516;2023-04-06T12:28:21;15.00;9.80
12156;DHT22;6141;49.092;8.516;2023-04-06T12:30:54;15.10;9.70
12156;DHT22;6141;49.092;8.516;2023-04-06T12:33:23;14.40;9.10
12156;DHT22;6141;49.092;8.516;2023-04-06T12:35:56;14.40;11.00
12156;DHT22;6141;49.092;8.516;2023-04-06T12:38:28;14.50;9.20
12156;DHT22;6141;49.092;8.516;2023-04-06T12:40:57;14.70;9.40
12156;DHT22;6141;49.092;8.516;2023-04-06T12:43:25;14.80;9.40
12156;DHT22;6141;49.092;8.516;2023-04-06T12:45:54;15.00;9.10
12156;DHT22;6141;49.092;8.516;2023-04-06T12:48:22;15.30;9.80
12156;DHT22;6141;49.092;8.516;2023-04-06T12:50:54;15.10;8.80
12156;DHT22;6141;49.092;8.516;2023-04-06T12:53:24;15.40;10.00
12156;DHT22;6141;49.092;8.516;2023-04-06T12:55:54;15.50;8.70
12156;DHT22;6141;49.092;8.516;2023-04-06T12:58:23;15.40;9.90
12156;DHT22;6141;49.092;8.516;2023-04-06T13:00:53;15.20;9.80
12156;DHT22;6141;49.092;8.516;2023-04-06T13:03:22;15.20;9.80
12156;DHT22;6141;49.092;8.516;2023-04-06T13:05:51;15.00;10.60
12156;DHT22;6141;49.092;8.516;2023-04-06T13:08:19;15.00;9.60
12156;DHT22;6141;49.092;8.516;2023-04-06T13:10:48;15.30;9.80
12156;DHT22;6141;49.092;8.516;2023-04-06T13:13:22;15.40;9.20
12156;DHT22;6141;49.092;8.516;2023-04-06T13:15:51;15.30;9.90
12156;DHT22;6141;49.092;8.516;2023-04-06T13:18:20;15.40;9.90
12156;DHT22;6141;49.092;8.516;2023-04-06T13:20:49;15.20;9.10
12156;DHT22;6141;49.092;8.516;2023-04-06T13:23:18;14.90;9.30
12156;DHT22;6141;49.092;8.516;2023-04-06T13:25:46;14.80;10.50
12156;DHT22;6141;49.092;8.516;2023-04-06T13:28:14;15.20;11.40
12156;DHT22;6141;49.092;8.516;2023-04-06T13:30:44;14.90;10.30
12156;DHT22;6141;49.092;8.516;2023-04-06T13:33:15;14.70;12.70
12156;DHT22;6141;49.092;8.516;2023-04-06T13:35:44;14.80;13.30
12156;DHT22;6141;49.092;8.516;2023-04-06T13:38:12;14.70;12.40
12156;DHT22;6141;49.092;8.516;2023-04-06T13:40:40;14.70;13.30
12156;DHT22;6141;49.092;8.516;2023-04-06T13:43:10;14.60;13.10
12156;DHT22;6141;49.092;8.516;2023-04-06T13:45:39;14.50;12.10
12156;DHT22;6141;49.092;8.516;2023-04-06T13:48:09;14.50;11.10
12156;DHT22;6141;49.092;8.516;2023-04-06T13:50:38;14.70;11.80
12156;DHT22;6141;49.092;8.516;2023-04-06T13:53:07;14.70;11.30
12156;DHT22;6141;49.092;8.516;2023-04-06T13:55:36;14.70;10.70
12156;DHT22;6141;49.092;8.516;2023-04-06T13:58:06;14.70;10.00
12156;DHT22;6141;49.092;8.516;2023-04-06T14:00:35;14.70;10.70
12156;DHT22;6141;49.092;8.516;2023-04-06T14:03:05;14.80;10.60
12156;DHT22;6141;49.092;8.516;2023-04-06T14:05:35;14.90;10.50
12156;DHT22;6141;49.092;8.516;2023-04-06T14:08:03;14.90;9.40
12156;DHT22;6141;49.092;8.516;2023-04-06T14:10:36;15.00;8.40
12156;DHT22;6141;49.092;8.516;2023-04-06T14:13:07;15.00;8.40
12156;DHT22;6141;49.092;8.516;2023-04-06T14:15:36;15.10;9.80
12156;DHT22;6141;49.092;8.516;2023-04-06T14:18:04;15.00;7.50
12156;DHT22;6141;49.092;8.516;2023-04-06T14:20:33;14.80;7.90
12156;DHT22;6141;49.092;8.516;2023-04-06T14:23:03;14.90;7.60
12156;DHT22;6141;49.092;8.516;2023-04-06T14:25:31;15.00;8.20
12156;DHT22;6141;49.092;8.516;2023-04-06T14:28:01;15.00;6.40
12156;DHT22;6141;49.092;8.516;2023-04-06T14:30:29;15.10;6.90
12156;DHT22;6141;49.092;8.516;2023-04-06T14:32:58;14.90;4.70
12156;DHT22;6141;49.092;8.516;2023-04-06T14:35:28;14.70;6.50
12156;DHT22;6141;49.092;8.516;2023-04-06T14:37:59;14.90;8.00
12156;DHT22;6141;49.092;8.516;2023-04-06T14:40:29;14.90;9.00
12156;DHT22;6141;49.092;8.516;2023-04-06T14:42:57;14.80;7.40
12156;DHT22;6141;49.092;8.516;2023-04-06T14:45:25;14.90;8.40
12156;DHT22;6141;49.092;8.516;2023-04-06T14:47:53;14.90;7.60
12156;DHT22;6141;49.092;8.516;2023-04-06T14:50:21;15.00;7.30
12156;DHT22;6141;49.092;8.516;2023-04-06T14:52:50;15.00;9.60
12156;DHT22;6141;49.092;8.516;2023-04-06T14:55:18;14.90;7.30
12156;DHT22;6141;49.092;8.516;2023-04-06T14:57:53;14.90;9.50
12156;DHT22;6141;49.092;8.516;2023-04-06T15:00:21;14.80;9.40
12156;DHT22;6141;49.092;8.516;2023-04-06T15:02:49;14.70;8.60
12156;DHT22;6141;49.092;8.516;2023-04-06T15:05:20;14.70;8.30
12156;DHT22;6141;49.092;8.516;2023-04-06T15:07:49;14.70;9.40
12156;DHT22;6141;49.092;8.516;2023-04-06T15:10:17;14.60;11.20
12156;DHT22;6141;49.092;8.516;2023-04-06T15:12:45;14.50;10.50
12156;DHT22;6141;49.092;8.516;2023-04-06T15:15:15;14.60;13.60
12156;DHT22;6141;49.092;8.516;2023-04-06T15:17:44;14.60;11.50
12156;DHT22;6141;49.092;8.516;2023-04-06T15:20:12;14.50;10.80
12156;DHT22;6141;49.092;8.516;2023-04-06T15:22:46;14.40;11.30
12156;DHT22;6141;49.092;8.516;2023-04-06T15:25:14;14.30;11.70
12156;DHT22;6141;49.092;8.516;2023-04-06T15:27:43;14.40;11.40
12156;DHT22;6141;49.092;8.516;2023-04-06T15:30:15;14.40;12.80
12156;DHT22;6141;49.092;8.516;2023-04-06T15:32:46;14.40;12.70
12156;DHT22;6141;49.092;8.516;2023-04-06T15:35:19;14.40;12.00
12156;DHT22;6141;49.092;8.516;2023-04-06T15:37:47;14.30;10.70
12156;DHT22;6141;49.092;8.516;2023-04-06T15:40:16;14.30;13.40
12156;DHT22;6141;49.092;8.516;2023-04-06T15:42:44;14.10;12.10
12156;DHT22;6141;49.092;8.516;2023-04-06T15:45:13;14.00;13.00
12156;DHT22;6141;49.092;8.516;2023-04-06T15:47:43;14.00;13.90
12156;DHT22;6141;49.092;8.516;2023-04-06T15:50:12;14.10;13.60
12156;DHT22;6141;49.092;8.516;2023-04-06T15:52:41;14.10;13.30
12156;DHT22;6141;49.092;8.516;2023-04-06T15:55:18;14.10;13.80
12156;DHT22;6141;49.092;8.516;2023-04-06T15:57:47;14.10;14.30
12156;DHT22;6141;49.092;8.516;2023-04-06T16:00:16;14.20;14.40
12156;DHT22;6141;49.092;8.516;2023-04-06T16:02:45;14.20;14.50
12156;DHT22;6141;49.092;8.516;2023-04-06T16:05:14;14.20;14.40
12156;DHT22;6141;49.092;8.516;2023-04-06T16:07:43;14.00;14.20
12156;DHT22;6141;49.092;8.516;2023-04-06T16:10:11;13.90;14.10
12156;DHT22;6141;49.092;8.516;2023-04-06T16:12:40;13.80;14.00
12156;DHT22;6141;49.092;8.516;2023-04-06T16:15:09;13.80;14.20
12156;DHT22;6141;49.092;8.516;2023-04-06T16:17:41;13.70;14.00